Time;durP1;ratioP1;P1;durP2;ratioP2;P2;SDS_P1;SDS_P2;PMS_P1;PMS_P2;Temp;Humidity;BMP_temperature;BMP_pressure;BME280_temperature;BME280_humidity;BME280_pressure;Samples;Min_cycle;Max_cycle;Signal;HPM_P1;HPM_P2
2023/04/28 00:00:46;;;;;;;74.07;5.53;;;13.50;1.00;;;;;;5018398;28;20169;-84
2023/04/28 00:03:11;;;;;;;69.93;6.53;;;13.40;1.00;;;;;;5018099;28;20537;-84
2023/04/28 00:05:37;;;;;;;72.17;6.40;;;13.50;1.00;;;;;;5017808;28;20419;-84
2023/04/28 00:08:03;;;;;;;69.50;7.00;;;13.50;1.00;;;;;;5017150;28;20444;-84
2023/04/28 00:10:33;;;;;;;70.13;7.77;;;13.40;1.00;;;;;;5017394;28;20216;-84
2023/04/28 00:12:59;;;;;;;72.47;7.93;;;13.50;1.00;;;;;;5017965;28;20854;-84
2023/04/28 00:15:30;;;;;;;69.73;7.00;;;13.50;1.00;;;;;;5015963;28;20452;-84
2023/04/28 00:17:56;;;;;;;73.27;6.80;;;13.50;1.00;;;;;;5015786;28;20162;-85
2023/04/28 00:20:21;;;;;;;69.10;7.00;;;13.40;1.00;;;;;;5016495;28;20412;-84
2023/04/28 00:22:49;;;;;;;68.67;7.17;;;13.40;1.00;;;;;;5017373;28;20621;-84
2023/04/28 00:25:14;;;;;;;75.13;7.70;;;13.50;1.00;;;;;;5014943;28;20186;-84
2023/04/28 00:27:40;;;;;;;71.37;6.70;;;13.40;1.00;;;;;;5016257;28;20463;-84
2023/04/28 00:30:06;;;;;;;73.03;7.07;;;13.40;1.00;;;;;;5016083;28;20621;-84
2023/04/28 00:32:32;;;;;;;67.33;6.23;;;13.40;1.00;;;;;;5016200;28;20704;-84
2023/04/28 00:34:58;;;;;;;69.90;6.57;;;13.40;1.00;;;;;;5016951;28;20420;-85
2023/04/28 00:37:23;;;;;;;71.30;7.20;;;13.40;1.00;;;;;;5017397;28;20713;-84
2023/04/28 00:39:54;;;;;;;69.57;7.80;;;13.40;1.00;;;;;;5016141;28;20559;-84
2023/04/28 00:42:20;;;;;;;72.67;7.47;;;13.40;1.00;;;;;;5017630;28;20154;-84
2023/04/28 00:44:46;;;;;;;69.43;7.40;;;13.40;1.00;;;;;;5016021;28;20455;-84
2023/04/28 00:47:12;;;;;;;71.53;6.53;;;13.40;1.10;;;;;;5015933;28;20204;-84
2023/04/28 00:49:37;;;;;;;70.23;7.37;;;13.40;4.10;;;;;;5017610;28;20166;-84
2023/04/28 00:52:06;;;;;;;69.87;8.00;;;13.40;1.00;;;;;;5019070;28;20416;-85
2023/04/28 00:54:33;;;;;;;70.70;7.60;;;13.40;5.90;;;;;;5019158;28;20185;-84
2023/04/28 00:57:01;;;;;;;69.20;7.10;;;13.40;4.80;;;;;;5024179;28;20401;-84
2023/04/28 00:59:28;;;;;;;71.57;7.30;;;13.40;4.50;;;;;;5023987;28;20476;-85
2023/04/28 01:01:54;;;;;;;70.97;7.63;;;13.40;8.10;;;;;;5023853;28;20419;-85
2023/04/28 01:04:20;;;;;;;67.50;6.97;;;13.40;2.60;;;;;;5023597;28;20448;-85
2023/04/28 01:06:50;;;;;;;74.00;7.53;;;13.40;6.90;;;;;;5024147;28;20186;-85
2023/04/28 01:09:15;;;;;;;68.70;7.90;;;13.40;6.70;;;;;;5023910;28;20396;-84
2023/04/28 01:11:41;;;;;;;71.60;7.43;;;13.30;9.00;;;;;;5023026;28;20935;-84
2023/04/28 01:14:06;;;;;;;70.63;8.03;;;13.30;11.70;;;;;;5023435;28;20185;-84
2023/04/28 01:16:34;;;;;;;73.10;7.90;;;13.30;16.80;;;;;;5022494;28;20201;-83
2023/04/28 01:19:00;;;;;;;69.50;7.37;;;13.30;18.30;;;;;;5019854;28;20177;-83
2023/04/28 01:21:31;;;;;;;69.00;8.83;;;13.30;26.40;;;;;;5020943;28;20901;-83
2023/04/28 01:23:57;;;;;;;68.47;7.23;;;13.20;26.10;;;;;;5020602;28;20456;-83
2023/04/28 01:26:24;;;;;;;68.90;8.00;;;13.30;25.40;;;;;;5019843;28;20405;-83
2023/04/28 01:28:49;;;;;;;70.73;8.60;;;13.20;39.40;;;;;;5019005;28;20932;-83
2023/04/28 01:31:15;;;;;;;70.13;8.10;;;13.20;38.90;;;;;;5020480;28;20404;-83
2023/04/28 01:33:41;;;;;;;72.23;10.77;;;13.20;44.40;;;;;;5020441;28;20649;-82
2023/04/28 01:36:07;;;;;;;70.27;8.73;;;13.20;51.20;;;;;;5020420;28;20429;-83
2023/04/28 01:38:33;;;;;;;68.77;9.20;;;13.20;40.30;;;;;;5019887;28;20192;-83
2023/04/28 01:40:58;;;;;;;72.10;7.67;;;13.20;55.30;;;;;;5019232;28;20396;-82
2023/04/28 01:43:24;;;;;;;68.50;7.90;;;13.20;54.10;;;;;;5018168;28;20239;-82
2023/04/28 01:45:50;;;;;;;70.93;8.10;;;13.10;67.70;;;;;;5017892;28;20221;-83
2023/04/28 01:48:16;;;;;;;71.57;8.00;;;13.10;76.70;;;;;;5018069;28;20452;-83
2023/04/28 01:50:42;;;;;;;70.17;7.90;;;13.10;70.30;;;;;;5018041;28;20202;-83
2023/04/28 01:53:07;;;;;;;71.20;7.73;;;13.00;70.30;;;;;;5017864;28;20417;-83
2023/04/28 01:55:33;;;;;;;71.00;7.30;;;13.10;73.30;;;;;;5018315;28;20197;-83
2023/04/28 01:57:58;;;;;;;69.67;7.47;;;13.00;79.70;;;;;;5017225;28;20205;-83
2023/04/28 02:00:25;;;;;;;73.00;7.47;;;13.00;86.00;;;;;;5018259;28;20200;-83
2023/04/28 02:02:51;;;;;;;69.80;8.17;;;13.00;84.10;;;;;;5017242;28;20170;-84
2023/04/28 02:05:17;;;;;;;71.53;7.50;;;13.00;82.10;;;;;;5018375;28;20435;-84
2023/04/28 02:07:43;;;;;;;71.30;7.33;;;13.00;80.70;;;;;;5017974;28;20194;-84
2023/04/28 02:10:09;;;;;;;70.57;7.87;;;12.90;75.80;;;;;;5018302;28;20240;-84
2023/04/28 02:12:34;;;;;;;69.40;7.07;;;12.90;82.50;;;;;;5051186;23;1175216;-86
2023/04/28 02:15:09;;;;;;;68.77;7.23;;;12.90;80.40;;;;;;5037374;28;20208;-86
2023/04/28 02:17:47;;;;;;;69.83;7.13;;;12.90;82.90;;;;;;5038181;28;20388;-86
2023/04/28 02:20:13;;;;;;;70.37;7.67;;;12.80;86.10;;;;;;5036544;28;20403;-86
2023/04/28 02:22:40;;;;;;;70.43;7.67;;;12.80;83.70;;;;;;5037904;28;20941;-86
2023/04/28 02:25:06;;;;;;;73.00;7.73;;;12.80;80.70;;;;;;5036663;28;20189;-86
2023/04/28 02:27:35;;;;;;;70.17;6.70;;;12.90;83.30;;;;;;5040032;28;20448;-86
2023/04/28 02:30:02;;;;;;;68.80;7.07;;;12.80;89.00;;;;;;5036966;28;20780;-86
2023/04/28 02:32:28;;;;;;;68.78;6.75;;;12.80;90.60;;;;;;5036054;28;20164;-86
2023/04/28 02:35:02;;;;;;;70.37;7.80;;;12.80;91.60;;;;;;5035148;28;20184;-86
2023/04/28 02:37:27;;;;;;;74.83;8.37;;;12.80;92.90;;;;;;5033563;28;20404;-86
2023/04/28 02:39:53;;;;;;;68.87;7.60;;;12.80;93.80;;;;;;5034746;28;20907;-86
2023/04/28 02:42:25;;;;;;;69.50;7.73;;;12.80;91.70;;;;;;5034941;28;20659;-86
2023/04/28 02:44:53;;;;;;;68.87;7.70;;;12.70;97.60;;;;;;5034542;28;20572;-86
2023/04/28 02:47:19;;;;;;;73.70;7.97;;;12.60;96.60;;;;;;5034529;28;20537;-86
2023/04/28 02:49:48;;;;;;;74.87;7.50;;;12.70;89.50;;;;;;5034724;28;20506;-86
2023/04/28 02:52:16;;;;;;;75.00;7.30;;;12.70;95.00;;;;;;5032925;28;20412;-86
2023/04/28 02:54:42;;;;;;;72.60;7.70;;;12.80;93.10;;;;;;5032837;28;20432;-86
2023/04/28 02:57:08;;;;;;;70.30;7.13;;;12.70;96.40;;;;;;5034664;28;20891;-86
2023/04/28 02:59:34;;;;;;;70.43;7.17;;;12.70;94.50;;;;;;5034543;28;20440;-86
2023/04/28 03:02:00;;;;;;;70.10;7.67;;;12.60;96.40;;;;;;5034066;28;20253;-86
2023/04/28 03:04:26;;;;;;;70.13;7.77;;;12.50;98.30;;;;;;5032780;28;20871;-86
2023/04/28 03:06:52;;;;;;;68.90;7.97;;;12.60;97.00;;;;;;5032890;28;20224;-86
2023/04/28 03:09:17;;;;;;;70.20;8.07;;;12.60;97.50;;;;;;5033387;28;20408;-86
2023/04/28 03:11:45;;;;;;;68.17;7.77;;;12.60;99.20;;;;;;5035083;28;20426;-86
2023/04/28 03:14:11;;;;;;;70.90;7.77;;;12.60;96.10;;;;;;5036028;28;20251;-86
2023/04/28 03:16:37;;;;;;;67.60;7.80;;;12.60;95.40;;;;;;5040537;28;20419;-86
2023/04/28 03:19:03;;;;;;;75.27;7.63;;;12.70;96.20;;;;;;5041917;28;20200;-86
2023/04/28 03:21:28;;;;;;;74.53;7.57;;;12.70;95.10;;;;;;5043006;28;20410;-86
2023/04/28 03:23:54;;;;;;;74.00;8.37;;;12.60;97.40;;;;;;5040717;28;20193;-85
2023/04/28 03:26:20;;;;;;;71.47;8.17;;;12.70;96.60;;;;;;5042341;28;20295;-86
2023/04/28 03:28:46;;;;;;;74.57;9.33;;;12.60;98.40;;;;;;5039972;28;20758;-86
2023/04/28 03:31:11;;;;;;;76.70;9.00;;;12.60;99.90;;;;;;5040104;28;20400;-86
2023/04/28 03:33:37;;;;;;;68.20;8.13;;;12.50;99.90;;;;;;5037046;28;20432;-86
2023/04/28 03:36:03;;;;;;;68.80;8.00;;;12.50;99.90;;;;;;5039453;28;20161;-86
2023/04/28 03:38:29;;;;;;;71.33;8.17;;;12.40;99.90;;;;;;5036876;28;20278;-86
2023/04/28 03:40:54;;;;;;;69.37;8.13;;;12.40;99.90;;;;;;5039026;28;20412;-85
2023/04/28 03:43:20;;;;;;;72.07;8.00;;;12.30;99.90;;;;;;5038608;28;20192;-86
2023/04/28 03:45:46;;;;;;;69.70;7.73;;;12.20;99.90;;;;;;5038989;28;20161;-86
2023/04/28 03:48:11;;;;;;;71.43;8.60;;;12.10;99.90;;;;;;5036240;28;20193;-86
2023/04/28 03:50:39;;;;;;;69.50;8.87;;;12.20;99.90;;;;;;5033899;28;20165;-86
2023/04/28 03:53:05;;;;;;;69.45;8.45;;;12.20;99.90;;;;;;5035406;28;20173;-85
2023/04/28 03:55:31;;;;;;;76.90;9.97;;;12.10;99.90;;;;;;5039037;28;20252;-86
2023/04/28 03:57:56;;;;;;;77.43;9.40;;;12.10;99.90;;;;;;5036588;28;20242;-85
2023/04/28 04:00:22;;;;;;;72.00;8.77;;;12.00;99.90;;;;;;5037110;28;20180;-86
2023/04/28 04:02:47;;;;;;;73.67;9.40;;;11.90;99.90;;;;;;5037190;28;20648;-86
2023/04/28 04:05:13;;;;;;;71.60;9.67;;;12.00;99.90;;;;;;5034746;28;20258;-86
2023/04/28 04:07:39;;;;;;;79.50;9.27;;;12.00;99.90;;;;;;5034293;28;20201;-86
2023/04/28 04:10:05;;;;;;;73.00;9.23;;;12.10;99.90;;;;;;5036010;28;20169;-86
2023/04/28 04:12:31;;;;;;;70.85;9.23;;;12.00;99.90;;;;;;5035727;28;20269;-86
2023/04/28 04:14:56;;;;;;;72.43;8.83;;;12.00;99.90;;;;;;5036443;28;20185;-86
2023/04/28 04:17:22;;;;;;;71.30;8.43;;;12.00;99.90;;;;;;5037074;28;20176;-86
2023/04/28 04:19:48;;;;;;;72.80;10.50;;;12.00;99.90;;;;;;5035515;28;20260;-86
2023/04/28 04:22:13;;;;;;;74.80;8.33;;;12.00;99.90;;;;;;5035697;28;20165;-86
2023/04/28 04:24:39;;;;;;;70.27;10.00;;;12.00;99.90;;;;;;5033688;28;20185;-86
2023/04/28 04:27:04;;;;;;;72.07;9.40;;;12.00;99.90;;;;;;5033744;28;20197;-86
2023/04/28 04:29:30;;;;;;;73.40;8.93;;;12.00;99.90;;;;;;5033022;28;20172;-86
2023/04/28 04:31:56;;;;;;;74.00;9.97;;;12.00;99.90;;;;;;5036260;28;20696;-86
2023/04/28 04:34:22;;;;;;;69.67;8.23;;;12.00;99.90;;;;;;5037778;28;20193;-86
2023/04/28 04:36:47;;;;;;;72.10;9.40;;;12.00;99.90;;;;;;5037510;28;20197;-86
2023/04/28 04:39:13;;;;;;;68.77;8.30;;;12.00;99.90;;;;;;5037292;28;20165;-86
2023/04/28 04:41:39;;;;;;;71.17;9.00;;;12.00;99.90;;;;;;5037212;28;20192;-86
2023/04/28 04:44:04;;;;;;;70.07;8.10;;;12.00;99.90;;;;;;5035915;28;20220;-86
2023/04/28 04:46:30;;;;;;;75.10;9.30;;;12.00;99.90;;;;;;5036904;28;20174;-86
2023/04/28 04:48:56;;;;;;;71.10;9.50;;;12.00;99.90;;;;;;5036373;28;20169;-86
2023/04/28 04:51:22;;;;;;;71.40;9.60;;;12.00;99.90;;;;;;5037034;28;20772;-86
2023/04/28 04:53:51;;;;;;;68.87;8.57;;;12.00;99.90;;;;;;5035864;28;20188;-86
2023/04/28 04:56:16;;;;;;;77.20;8.63;;;12.00;99.90;;;;;;5037472;28;20528;-86
2023/04/28 04:58:45;;;;;;;70.10;8.53;;;12.10;99.90;;;;;;5035710;28;20169;-86
2023/04/28 05:01:11;;;;;;;69.30;8.32;;;12.00;99.90;;;;;;5037541;28;20192;-86
2023/04/28 05:03:36;;;;;;;70.50;8.63;;;12.00;99.90;;;;;;5035672;28;20264;-86
2023/04/28 05:06:03;;;;;;;72.70;8.40;;;12.00;99.90;;;;;;5036497;28;20248;-87
2023/04/28 05:08:28;;;;;;;69.28;7.97;;;12.00;99.90;;;;;;5037100;28;20192;-86
2023/04/28 05:10:54;;;;;;;70.63;7.97;;;12.00;99.90;;;;;;5036643;28;20157;-86
2023/04/28 05:13:20;;;;;;;76.40;9.43;;;11.90;99.90;;;;;;5037093;28;20212;-86
2023/04/28 05:15:45;;;;;;;67.77;7.43;;;11.90;99.90;;;;;;5035023;28;20211;-86
2023/04/28 05:18:12;;;;;;;69.97;9.30;;;12.00;99.90;;;;;;5035435;28;20226;-86
2023/04/28 05:20:38;;;;;;;69.70;8.73;;;11.90;99.90;;;;;;5034926;28;20265;-86
2023/04/28 05:23:04;;;;;;;76.47;8.90;;;12.00;99.90;;;;;;5036398;28;20215;-86
2023/04/28 05:25:30;;;;;;;74.05;9.40;;;12.00;99.90;;;;;;5035152;28;20283;-86
2023/04/28 05:27:56;;;;;;;69.93;8.97;;;11.90;99.90;;;;;;5037709;28;20244;-86
2023/04/28 05:30:22;;;;;;;70.60;12.30;;;11.90;99.90;;;;;;5038260;28;20169;-86
2023/04/28 05:32:47;;;;;;;73.03;14.60;;;12.00;99.90;;;;;;5038521;28;20256;-86
2023/04/28 05:35:14;;;;;;;75.90;16.07;;;12.00;99.90;;;;;;5036666;28;20212;-86
2023/04/28 05:37:41;;;;;;;72.47;15.25;;;12.00;99.90;;;;;;5038045;28;20168;-86
2023/04/28 05:40:08;;;;;;;73.03;18.10;;;12.00;99.90;;;;;;5035777;28;20173;-86
2023/04/28 05:42:34;;;;;;;76.22;19.23;;;11.90;99.90;;;;;;5036519;28;20169;-86
2023/04/28 05:45:02;;;;;;;74.13;21.33;;;11.90;99.90;;;;;;5039357;28;20181;-86
2023/04/28 05:47:31;;;;;;;74.25;20.77;;;11.80;99.90;;;;;;5037582;28;20668;-85
2023/04/28 05:49:57;;;;;;;75.78;21.75;;;11.80;99.90;;;;;;5036779;28;20173;-86
2023/04/28 05:52:22;;;;;;;77.63;22.60;;;11.70;99.90;;;;;;5036262;28;20165;-86
2023/04/28 05:54:51;;;;;;;75.10;21.20;;;11.70;99.90;;;;;;5035333;28;20193;-86
2023/04/28 05:57:16;;;;;;;74.65;20.77;;;11.70;99.90;;;;;;5034719;28;20416;-86
2023/04/28 05:59:42;;;;;;;78.53;21.20;;;11.70;99.90;;;;;;5033977;28;20169;-86
2023/04/28 06:02:08;;;;;;;76.60;23.20;;;11.80;99.90;;;;;;5034200;28;20218;-86
2023/04/28 06:04:33;;;;;;;76.97;22.73;;;11.90;99.90;;;;;;5035469;28;20185;-86
2023/04/28 06:06:59;;;;;;;79.50;23.60;;;11.90;99.90;;;;;;5034060;28;20595;-86
2023/04/28 06:09:28;;;;;;;75.23;23.00;;;11.90;99.90;;;;;;5033974;28;20658;-86
2023/04/28 06:11:54;;;;;;;81.43;23.05;;;11.80;99.90;;;;;;5034041;28;20166;-86
2023/04/28 06:14:25;;;;;;;77.43;23.73;;;11.90;99.90;;;;;;5035214;28;20275;-86
2023/04/28 06:16:51;;;;;;;77.40;19.50;;;11.90;99.90;;;;;;5034025;28;20173;-86
2023/04/28 06:19:17;;;;;;;78.10;22.10;;;12.00;99.90;;;;;;5034318;28;20184;-86
2023/04/28 06:21:44;;;;;;;74.53;21.53;;;12.00;99.90;;;;;;5035746;28;20166;-86
2023/04/28 06:24:10;;;;;;;80.20;23.15;;;11.90;99.90;;;;;;5035794;28;20435;-86
2023/04/28 06:26:36;;;;;;;75.03;22.77;;;11.90;99.90;;;;;;5035508;28;20173;-87
2023/04/28 06:29:02;;;;;;;77.60;26.53;;;11.90;99.90;;;;;;5033523;28;20165;-87
2023/04/28 06:31:28;;;;;;;76.22;18.15;;;11.80;99.90;;;;;;5034736;28;20396;-87
2023/04/28 06:33:53;;;;;;;73.53;19.53;;;11.80;99.90;;;;;;5034537;28;20181;-87
2023/04/28 06:36:19;;;;;;;79.97;20.10;;;11.90;99.90;;;;;;5034528;28;20603;-87
2023/04/28 06:38:45;;;;;;;77.87;21.10;;;11.90;99.90;;;;;;5034459;28;20403;-87
2023/04/28 06:41:13;;;;;;;80.10;20.43;;;12.00;99.90;;;;;;5033351;28;20173;-87
2023/04/28 06:43:42;;;;;;;74.07;17.48;;;12.00;99.90;;;;;;5034392;28;20189;-87
2023/04/28 06:46:09;;;;;;;75.03;16.70;;;12.10;99.90;;;;;;5033179;28;20173;-86
2023/04/28 06:48:35;;;;;;;75.43;17.98;;;12.00;99.90;;;;;;5034903;28;20200;-87
2023/04/28 06:51:01;;;;;;;76.00;20.13;;;12.10;99.90;;;;;;5033957;28;20613;-87
2023/04/28 06:53:26;;;;;;;75.90;20.70;;;12.20;99.90;;;;;;5033467;28;20165;-87
2023/04/28 06:55:52;;;;;;;76.93;23.30;;;12.20;99.90;;;;;;5033516;28;20169;-86
2023/04/28 06:58:19;;;;;;;73.67;20.87;;;12.40;99.90;;;;;;5034156;28;20165;-87
2023/04/28 07:00:45;;;;;;;78.70;23.83;;;12.50;99.90;;;;;;5032999;28;20200;-87
2023/04/28 07:03:11;;;;;;;77.40;24.53;;;12.60;99.90;;;;;;5034036;28;20911;-87
2023/04/28 07:05:36;;;;;;;77.33;23.60;;;12.60;99.90;;;;;;5034323;28;20169;-86
2023/04/28 07:08:02;;;;;;;76.20;25.70;;;12.50;99.90;;;;;;5034011;28;20440;-86
2023/04/28 07:10:28;;;;;;;78.67;25.87;;;12.60;99.90;;;;;;5032990;28;20166;-87
2023/04/28 07:12:54;;;;;;;78.40;24.87;;;12.60;99.90;;;;;;5033853;28;20842;-87
2023/04/28 07:15:20;;;;;;;74.77;22.67;;;12.70;99.90;;;;;;5032648;28;20181;-87
2023/04/28 07:17:45;;;;;;;75.30;23.20;;;12.60;99.90;;;;;;5034233;28;20502;-87
2023/04/28 07:20:13;;;;;;;76.13;24.03;;;12.60;99.90;;;;;;5033801;28;20919;-87
2023/04/28 07:22:39;;;;;;;75.60;22.57;;;12.60;99.90;;;;;;5033696;28;20536;-87
2023/04/28 07:25:05;;;;;;;81.33;25.93;;;12.60;99.90;;;;;;5032423;28;20502;-87
2023/04/28 07:27:31;;;;;;;78.97;26.20;;;12.60;99.90;;;;;;5033644;28;20568;-87
2023/04/28 07:30:03;;;;;;;77.20;24.00;;;12.70;99.90;;;;;;5033768;28;20412;-86
2023/04/28 07:32:32;;;;;;;76.60;17.92;;;12.80;99.90;;;;;;5032513;28;20161;-86
2023/04/28 07:35:05;;;;;;;77.03;26.30;;;12.80;99.90;;;;;;5032920;28;20214;-86
2023/04/28 07:37:31;;;;;;;80.47;26.47;;;12.70;99.90;;;;;;5032845;28;20215;-87
2023/04/28 07:39:57;;;;;;;75.50;26.37;;;12.90;99.90;;;;;;5033640;28;20443;-86
2023/04/28 07:42:37;;;;;;;75.20;24.07;;;13.00;99.90;;;;;;5033684;28;20169;-86
2023/04/28 07:45:04;;;;;;;80.20;25.90;;;13.00;99.90;;;;;;5033957;28;20733;-87
2023/04/28 07:47:33;;;;;;;75.07;22.57;;;13.10;99.90;;;;;;5033458;28;20451;-86
2023/04/28 07:50:02;;;;;;;75.33;22.07;;;13.30;99.90;;;;;;5032480;28;20510;-86
2023/04/28 07:52:28;;;;;;;77.50;22.80;;;13.40;99.90;;;;;;5032654;28;20408;-87
2023/04/28 07:54:53;;;;;;;76.13;21.57;;;13.50;99.90;;;;;;5033872;28;20438;-87
2023/04/28 07:57:19;;;;;;;75.00;19.07;;;13.60;99.90;;;;;;5032448;28;20176;-87
2023/04/28 07:59:45;;;;;;;75.87;18.07;;;13.80;99.90;;;;;;5033697;28;20172;-86
2023/04/28 08:02:13;;;;;;;75.07;22.00;;;13.80;99.90;;;;;;5032626;28;20169;-86
2023/04/28 08:04:39;;;;;;;79.43;23.63;;;13.90;99.90;;;;;;5034512;28;20231;-87
2023/04/28 08:07:05;;;;;;;73.67;16.77;;;14.00;99.90;;;;;;5037112;28;20451;-86
2023/04/28 08:09:31;;;;;;;78.20;22.03;;;14.10;99.90;;;;;;5038588;28;20498;-86
2023/04/28 08:11:57;;;;;;;75.87;20.50;;;14.10;99.90;;;;;;5037174;28;20830;-86
2023/04/28 08:14:24;;;;;;;74.17;12.47;;;14.20;99.90;;;;;;5117028;22;20495;-84
2023/04/28 08:16:50;;;;;;;72.67;14.10;;;14.30;99.90;;;;;;5020525;28;20431;-83
2023/04/28 08:19:16;;;;;;;74.50;12.43;;;14.20;99.90;;;;;;5020933;28;20483;-83
2023/04/28 08:21:44;;;;;;;76.07;12.40;;;14.00;99.90;;;;;;5021095;28;20976;-83
2023/04/28 08:24:10;;;;;;;71.37;12.30;;;14.10;99.90;;;;;;5020462;28;20849;-84
2023/04/28 08:26:39;;;;;;;71.90;13.00;;;14.30;99.90;;;;;;5020524;28;20439;-83
2023/04/28 08:29:05;;;;;;;77.40;12.57;;;14.40;99.90;;;;;;5020833;28;20171;-84
2023/04/28 08:31:31;;;;;;;73.87;14.30;;;14.50;99.90;;;;;;5019897;28;20405;-83
2023/04/28 08:33:56;;;;;;;78.13;18.07;;;14.40;99.90;;;;;;5020635;28;20428;-84
2023/04/28 08:36:24;;;;;;;75.07;14.47;;;14.60;99.90;;;;;;5020150;28;20484;-84
2023/04/28 08:38:50;;;;;;;78.00;13.47;;;14.80;99.90;;;;;;5018457;28;20606;-84
2023/04/28 08:41:16;;;;;;;73.10;11.70;;;14.90;99.90;;;;;;5020165;28;20808;-84
2023/04/28 08:43:42;;;;;;;69.60;10.97;;;15.00;99.90;;;;;;5020254;28;20431;-83
2023/04/28 08:46:13;;;;;;;76.37;11.67;;;15.00;99.90;;;;;;5020761;28;20889;-83
2023/04/28 08:48:46;;;;;;;73.70;11.47;;;15.10;99.90;;;;;;5020125;28;20433;-84
2023/04/28 08:51:24;;;;;;;73.43;11.87;;;15.00;99.90;;;;;;5020229;28;20436;-84
2023/04/28 08:53:53;;;;;;;74.17;13.83;;;14.90;99.90;;;;;;5018300;28;20834;-83
2023/04/28 08:56:22;;;;;;;75.63;16.17;;;14.80;99.90;;;;;;5019565;28;20458;-83
2023/04/28 08:58:49;;;;;;;76.70;19.67;;;14.90;99.90;;;;;;5018253;28;20416;-83
2023/04/28 09:01:14;;;;;;;74.20;19.47;;;14.90;99.90;;;;;;5017955;28;20795;-83
2023/04/28 09:03:40;;;;;;;75.00;19.67;;;14.90;99.90;;;;;;5018558;28;20426;-83
2023/04/28 09:06:07;;;;;;;75.70;20.80;;;14.80;99.90;;;;;;5018664;28;20170;-83
2023/04/28 09:08:32;;;;;;;74.47;20.40;;;14.70;99.90;;;;;;5017903;28;20449;-83
2023/04/28 09:11:09;;;;;;;76.73;20.27;;;14.70;99.90;;;;;;5019137;28;20404;-83
2023/04/28 09:13:36;;;;;;;75.63;18.57;;;14.50;99.90;;;;;;5019070;28;20201;-83
2023/04/28 09:16:03;;;;;;;75.20;17.23;;;14.40;99.90;;;;;;5018198;28;20398;-83
2023/04/28 09:18:31;;;;;;;75.27;20.13;;;14.50;99.90;;;;;;5018362;28;20401;-83
2023/04/28 09:21:08;;;;;;;83.80;18.10;;;14.40;99.90;;;;;;5017516;28;20412;-83
2023/04/28 09:23:49;;;;;;;72.70;14.80;;;14.40;99.90;;;;;;5018904;28;20503;-82
2023/04/28 09:26:15;;;;;;;76.50;15.83;;;14.30;99.90;;;;;;5017986;28;20450;-82
2023/04/28 09:28:41;;;;;;;74.27;15.80;;;14.20;99.90;;;;;;5018543;28;20876;-82
2023/04/28 09:31:24;;;;;;;72.40;14.50;;;14.20;99.90;;;;;;5018755;28;20248;-82
2023/04/28 09:33:57;;;;;;;74.07;13.47;;;14.10;99.90;;;;;;5016715;28;20616;-83
2023/04/28 09:36:28;;;;;;;77.67;15.77;;;14.10;99.90;;;;;;5018067;28;20900;-82
2023/04/28 09:38:56;;;;;;;75.90;17.87;;;14.20;99.90;;;;;;5017776;28;20409;-82
2023/04/28 09:41:44;;;;;;;76.37;19.90;;;14.30;99.90;;;;;;5018895;28;20919;-82
2023/04/28 09:44:17;;;;;;;75.00;19.07;;;14.30;99.90;;;;;;5018060;28;20822;-83
2023/04/28 09:46:44;;;;;;;80.10;18.63;;;14.40;99.90;;;;;;5017676;28;20385;-82
2023/04/28 09:49:10;;;;;;;78.23;19.13;;;14.40;99.90;;;;;;5018566;28;20939;-83
2023/04/28 09:51:36;;;;;;;83.20;20.70;;;14.40;99.90;;;;;;5018331;28;20519;-83
2023/04/28 09:54:03;;;;;;;76.00;18.37;;;14.40;99.90;;;;;;5017954;28;20925;-82
2023/04/28 09:56:30;;;;;;;76.90;23.47;;;14.50;99.90;;;;;;5016555;28;20491;-82
2023/04/28 09:59:00;;;;;;;82.37;24.97;;;14.60;99.90;;;;;;5017123;28;20397;-81
2023/04/28 10:01:39;;;;;;;79.00;25.33;;;14.70;99.90;;;;;;5014465;28;20447;-78
2023/04/28 10:04:10;;;;;;;85.57;21.47;;;14.70;99.90;;;;;;5015902;28;20431;-81
2023/04/28 10:06:36;;;;;;;81.93;29.87;;;14.70;99.90;;;;;;5015473;28;20412;-81
2023/04/28 10:09:02;;;;;;;80.80;27.83;;;14.60;99.90;;;;;;5015948;28;20409;-80
2023/04/28 10:11:38;;;;;;;85.87;34.83;;;14.60;99.90;;;;;;5014440;28;20660;-81
2023/04/28 10:14:03;;;;;;;82.77;34.67;;;14.50;99.90;;;;;;5014363;28;20448;-81
2023/04/28 10:16:31;;;;;;;84.10;38.10;;;14.40;99.90;;;;;;5016038;28;20401;-81
2023/04/28 10:18:58;;;;;;;86.90;43.13;;;14.40;99.90;;;;;;5016063;28;20159;-81
2023/04/28 10:21:31;;;;;;;88.70;45.50;;;14.40;99.90;;;;;;5016198;28;20802;-81
2023/04/28 10:24:13;;;;;;;88.53;44.13;;;14.40;99.90;;;;;;5015818;28;20428;-81
2023/04/28 10:26:51;;;;;;;85.57;38.60;;;14.40;99.90;;;;;;5015817;28;20377;-81
2023/04/28 10:29:25;;;;;;;82.67;32.53;;;14.40;99.90;;;;;;5015547;28;20405;-81
2023/04/28 10:32:18;;;;;;;82.10;31.07;;;14.50;99.90;;;;;;5015735;28;20488;-81
2023/04/28 10:34:44;;;;;;;82.20;29.77;;;14.70;99.90;;;;;;5015358;28;20425;-81
2023/04/28 10:37:09;;;;;;;82.90;31.93;;;14.80;99.90;;;;;;5015946;28;20406;-81
2023/04/28 10:39:36;;;;;;;87.20;36.53;;;15.00;99.90;;;;;;5015614;28;20412;-81
2023/04/28 10:42:02;;;;;;;83.70;30.60;;;15.00;99.90;;;;;;5015300;28;20201;-81
2023/04/28 10:44:36;;;;;;;83.50;33.47;;;15.00;99.90;;;;;;5013953;28;20529;-82
2023/04/28 10:47:08;;;;;;;87.40;37.57;;;15.00;99.90;;;;;;5015478;28;20523;-82
2023/04/28 10:50:01;;;;;;;86.17;41.27;;;15.00;99.90;;;;;;5016263;28;20389;-83
2023/04/28 10:52:36;;;;;;;83.27;39.07;;;14.90;99.90;;;;;;5016563;28;20845;-83
2023/04/28 10:55:53;;;;;;;81.80;34.07;;;14.90;99.90;;;;;;5034747;23;20480;-83
2023/04/28 10:58:28;;;;;;;80.97;28.40;;;14.90;99.90;;;;;;5034951;28;20440;-81
2023/04/28 11:01:17;;;;;;;79.83;26.30;;;14.90;99.90;;;;;;5034212;28;20423;-81
2023/04/28 11:03:49;;;;;;;77.53;21.93;;;15.00;99.90;;;;;;5034262;28;20445;-81
2023/04/28 11:06:28;;;;;;;78.80;24.90;;;15.10;99.90;;;;;;5035713;28;20759;-81
2023/04/28 11:08:56;;;;;;;80.87;28.10;;;15.30;99.90;;;;;;5033711;28;20873;-81
2023/04/28 11:11:30;;;;;;;88.90;35.07;;;15.40;99.90;;;;;;5033762;28;20448;-81
2023/04/28 11:14:15;;;;;;;84.87;35.17;;;15.90;99.90;;;;;;5035098;28;20521;-79
2023/04/28 11:16:54;;;;;;;80.60;31.97;;;16.20;99.90;;;;;;5034859;28;20466;-79
2023/04/28 11:19:20;;;;;;;76.20;17.67;;;16.40;99.90;;;;;;5035758;28;20458;-79
2023/04/28 11:21:47;;;;;;;78.43;18.40;;;16.70;99.90;;;;;;5034149;28;20409;-79
2023/04/28 11:24:13;;;;;;;75.50;21.07;;;16.80;99.90;;;;;;5035318;28;20188;-80
2023/04/28 11:26:39;;;;;;;77.33;23.70;;;17.10;99.90;;;;;;5035770;28;20463;-81
2023/04/28 11:29:13;;;;;;;78.57;27.07;;;17.20;99.90;;;;;;5034809;28;20440;-80
2023/04/28 11:31:38;;;;;;;76.10;23.97;;;17.70;99.90;;;;;;5033764;28;20412;-81
2023/04/28 11:34:06;;;;;;;88.67;51.77;;;18.20;99.90;;;;;;5034875;28;20439;-81
2023/04/28 11:36:35;;;;;;;85.77;39.87;;;18.10;99.90;;;;;;5036140;28;20169;-80
2023/04/28 11:39:06;;;;;;;77.73;29.00;;;18.00;99.90;;;;;;5036636;28;20492;-80
2023/04/28 11:41:37;;;;;;;76.87;20.37;;;18.10;99.90;;;;;;5036489;28;20428;-80
2023/04/28 11:44:16;;;;;;;72.80;17.80;;;18.00;99.90;;;;;;5036517;28;20424;-80
2023/04/28 11:46:56;;;;;;;75.53;19.80;;;18.10;99.90;;;;;;5035218;28;20411;-80
2023/04/28 11:49:32;;;;;;;73.73;15.40;;;18.00;99.90;;;;;;5035314;28;20416;-80
2023/04/28 11:52:04;;;;;;;72.13;17.63;;;18.10;99.90;;;;;;5035626;28;20934;-80
2023/04/28 11:54:33;;;;;;;70.50;12.80;;;18.40;99.90;;;;;;5035398;28;20808;-80
2023/04/28 11:57:06;;;;;;;70.37;13.20;;;18.80;99.90;;;;;;5036068;28;20515;-80
2023/04/28 11:59:35;;;;;;;69.23;8.40;;;19.10;99.90;;;;;;5036435;28;20823;-80
2023/04/28 12:02:05;;;;;;;69.80;10.23;;;19.30;99.90;;;;;;5036385;28;20404;-80
2023/04/28 12:04:36;;;;;;;68.90;8.57;;;19.20;99.90;;;;;;5036291;28;20474;-81
2023/04/28 12:07:06;;;;;;;69.73;8.87;;;19.20;99.90;;;;;;5036294;28;20440;-81
2023/04/28 12:09:45;;;;;;;71.80;10.13;;;18.90;99.90;;;;;;5036016;28;20479;-81
2023/04/28 12:12:35;;;;;;;70.40;11.00;;;18.80;99.90;;;;;;5037431;28;20460;-81
2023/04/28 12:17:43;;;;;;;71.10;9.70;;;18.70;99.90;;;;;;4155002;26;20565;-83
2023/04/28 12:20:33;;;;;;;74.33;9.97;;;18.80;99.90;;;;;;4976317;28;20395;-84
2023/04/28 12:23:34;;;;;;;69.50;9.77;;;18.70;99.90;;;;;;4978175;28;20414;-84
2023/04/28 12:26:01;;;;;;;71.27;10.40;;;19.00;99.90;;;;;;4956967;28;20407;-84
2023/04/28 12:28:50;;;;;;;70.10;11.20;;;19.40;99.90;;;;;;4957287;28;20451;-84
2023/04/28 12:31:16;;;;;;;69.87;12.20;;;19.80;99.90;;;;;;4971960;28;20408;-84
2023/04/28 12:33:45;;;;;;;68.20;8.83;;;20.10;99.90;;;;;;4957372;28;20784;-84
2023/04/28 12:36:20;;;;;;;69.80;10.30;;;20.30;99.90;;;;;;4972206;28;20204;-84
2023/04/28 12:38:48;;;;;;;73.17;8.30;;;20.60;99.90;;;;;;4958342;28;20390;-84
2023/04/28 12:41:29;;;;;;;68.07;6.57;;;20.80;99.90;;;;;;4957759;28;20783;-84